sensor_id;sensor_type;location;lat;lon;timestamp;temperature;humidity
13686;DHT22;6915;48.296;8.874;2023-02-25T00:00:10;4.30;99.90
13686;DHT22;6915;48.296;8.874;2023-02-25T00:02:45;4.30;99.90
13686;DHT22;6915;48.296;8.874;2023-02-25T00:05:14;4.30;99.90
13686;DHT22;6915;48.296;8.874;2023-02-25T00:07:43;4.30;99.90
13686;DHT22;6915;48.296;8.874;2023-02-25T00:10:14;4.20;99.90
13686;DHT22;6915;48.296;8.874;2023-02-25T00:12:43;4.30;99.90
13686;DHT22;6915;48.296;8.874;2023-02-25T00:15:12;4.20;99.90
13686;DHT22;6915;48.296;8.874;2023-02-25T00:17:41;4.20;99.90
13686;DHT22;6915;48.296;8.874;2023-02-25T00:20:13;4.30;99.90
13686;DHT22;6915;48.296;8.874;2023-02-25T00:22:42;4.20;99.90
13686;DHT22;6915;48.296;8.874;2023-02-25T00:25:10;4.20;99.90
13686;DHT22;6915;48.296;8.874;2023-02-25T00:27:39;4.30;99.90
13686;DHT22;6915;48.296;8.874;2023-02-25T00:30:10;4.20;99.90
13686;DHT22;6915;48.296;8.874;2023-02-25T00:32:39;4.20;99.90
13686;DHT22;6915;48.296;8.874;2023-02-25T00:35:08;4.20;99.90
13686;DHT22;6915;48.296;8.874;2023-02-25T00:37:40;4.20;99.90
13686;DHT22;6915;48.296;8.874;2023-02-25T00:40:10;4.30;99.90
13686;DHT22;6915;48.296;8.874;2023-02-25T00:42:43;4.20;99.90
13686;DHT22;6915;48.296;8.874;2023-02-25T00:45:14;4.20;99.90
13686;DHT22;6915;48.296;8.874;2023-02-25T00:47:42;4.10;99.90
13686;DHT22;6915;48.296;8.874;2023-02-25T00:50:10;4.10;99.90
13686;DHT22;6915;48.296;8.874;2023-02-25T00:52:41;4.10;99.90
13686;DHT22;6915;48.296;8.874;2023-02-25T00:55:11;4.10;99.90
13686;DHT22;6915;48.296;8.874;2023-02-25T00:57:40;4.10;99.90
13686;DHT22;6915;48.296;8.874;2023-02-25T01:00:14;4.10;99.90
13686;DHT22;6915;48.296;8.874;2023-02-25T01:02:44;4.10;99.90
13686;DHT22;6915;48.296;8.874;2023-02-25T01:05:13;4.00;99.90
13686;DHT22;6915;48.296;8.874;2023-02-25T01:07:42;4.10;99.90
13686;DHT22;6915;48.296;8.874;2023-02-25T01:10:12;4.10;99.90
13686;DHT22;6915;48.296;8.874;2023-02-25T01:12:41;4.10;99.90
13686;DHT22;6915;48.296;8.874;2023-02-25T01:15:11;4.00;99.90
13686;DHT22;6915;48.296;8.874;2023-02-25T01:17:39;4.00;99.90
13686;DHT22;6915;48.296;8.874;2023-02-25T01:20:10;4.00;99.90
13686;DHT22;6915;48.296;8.874;2023-02-25T01:22:40;3.90;99.90
13686;DHT22;6915;48.296;8.874;2023-02-25T01:25:12;4.00;99.90
13686;DHT22;6915;48.296;8.874;2023-02-25T01:27:43;3.90;99.90
13686;DHT22;6915;48.296;8.874;2023-02-25T01:30:14;4.00;99.90
13686;DHT22;6915;48.296;8.874;2023-02-25T01:32:43;4.00;99.90
13686;DHT22;6915;48.296;8.874;2023-02-25T01:35:13;3.90;99.90
13686;DHT22;6915;48.296;8.874;2023-02-25T01:37:42;4.00;99.90
13686;DHT22;6915;48.296;8.874;2023-02-25T01:40:15;3.90;99.90
13686;DHT22;6915;48.296;8.874;2023-02-25T01:42:44;3.80;99.90
13686;DHT22;6915;48.296;8.874;2023-02-25T01:45:34;3.90;99.90
13686;DHT22;6915;48.296;8.874;2023-02-25T01:48:10;3.80;99.90
13686;DHT22;6915;48.296;8.874;2023-02-25T01:50:49;3.80;99.90
13686;DHT22;6915;48.296;8.874;2023-02-25T01:53:22;3.90;99.90
13686;DHT22;6915;48.296;8.874;2023-02-25T01:55:52;3.80;99.90
13686;DHT22;6915;48.296;8.874;2023-02-25T01:58:22;3.80;99.90
13686;DHT22;6915;48.296;8.874;2023-02-25T02:00:52;3.90;99.90
13686;DHT22;6915;48.296;8.874;2023-02-25T02:03:22;3.80;99.90
13686;DHT22;6915;48.296;8.874;2023-02-25T02:06:00;3.80;99.90
13686;DHT22;6915;48.296;8.874;2023-02-25T02:08:31;3.80;99.90
13686;DHT22;6915;48.296;8.874;2023-02-25T02:11:02;3.70;99.90
13686;DHT22;6915;48.296;8.874;2023-02-25T02:13:33;3.70;99.90
13686;DHT22;6915;48.296;8.874;2023-02-25T02:16:13;3.70;99.90
13686;DHT22;6915;48.296;8.874;2023-02-25T02:18:49;3.60;99.90
13686;DHT22;6915;48.296;8.874;2023-02-25T02:21:32;3.70;99.90
13686;DHT22;6915;48.296;8.874;2023-02-25T02:24:41;3.60;99.90
13686;DHT22;6915;48.296;8.874;2023-02-25T02:27:12;3.60;99.90
13686;DHT22;6915;48.296;8.874;2023-02-25T02:30:02;3.50;99.90
13686;DHT22;6915;48.296;8.874;2023-02-25T02:32:40;3.50;99.90
13686;DHT22;6915;48.296;8.874;2023-02-25T02:35:14;3.50;99.90
13686;DHT22;6915;48.296;8.874;2023-02-25T02:37:47;3.50;99.90
13686;DHT22;6915;48.296;8.874;2023-02-25T02:40:35;3.50;99.90
13686;DHT22;6915;48.296;8.874;2023-02-25T02:43:07;3.50;99.90
13686;DHT22;6915;48.296;8.874;2023-02-25T02:45:42;3.50;99.90
13686;DHT22;6915;48.296;8.874;2023-02-25T02:48:32;3.50;99.90
13686;DHT22;6915;48.296;8.874;2023-02-25T02:51:04;3.60;99.90
13686;DHT22;6915;48.296;8.874;2023-02-25T02:53:37;3.40;99.90
13686;DHT22;6915;48.296;8.874;2023-02-25T02:56:10;3.50;99.90
13686;DHT22;6915;48.296;8.874;2023-02-25T02:58:43;3.40;99.90
13686;DHT22;6915;48.296;8.874;2023-02-25T03:01:16;3.40;99.90
13686;DHT22;6915;48.296;8.874;2023-02-25T03:03:49;3.30;99.90
13686;DHT22;6915;48.296;8.874;2023-02-25T03:06:21;3.30;99.90
13686;DHT22;6915;48.296;8.874;2023-02-25T03:08:55;3.30;99.90
13686;DHT22;6915;48.296;8.874;2023-02-25T03:11:24;3.30;99.90
13686;DHT22;6915;48.296;8.874;2023-02-25T03:13:53;3.40;99.90
13686;DHT22;6915;48.296;8.874;2023-02-25T03:16:25;3.20;99.90
13686;DHT22;6915;48.296;8.874;2023-02-25T03:19:00;3.20;99.90
13686;DHT22;6915;48.296;8.874;2023-02-25T03:21:35;3.40;99.90
13686;DHT22;6915;48.296;8.874;2023-02-25T03:24:10;3.20;99.90
13686;DHT22;6915;48.296;8.874;2023-02-25T03:26:41;3.20;99.90
13686;DHT22;6915;48.296;8.874;2023-02-25T03:29:14;3.20;99.90
13686;DHT22;6915;48.296;8.874;2023-02-25T03:31:47;3.20;99.90
13686;DHT22;6915;48.296;8.874;2023-02-25T03:34:22;3.20;99.90
13686;DHT22;6915;48.296;8.874;2023-02-25T03:36:55;3.10;99.90
13686;DHT22;6915;48.296;8.874;2023-02-25T03:39:28;3.10;99.90
13686;DHT22;6915;48.296;8.874;2023-02-25T03:42:00;3.10;99.90
13686;DHT22;6915;48.296;8.874;2023-02-25T03:44:33;3.00;99.90
13686;DHT22;6915;48.296;8.874;2023-02-25T03:47:04;3.00;99.90
13686;DHT22;6915;48.296;8.874;2023-02-25T03:49:39;3.00;99.90
13686;DHT22;6915;48.296;8.874;2023-02-25T03:52:13;3.00;99.90
13686;DHT22;6915;48.296;8.874;2023-02-25T03:54:47;3.00;99.90
13686;DHT22;6915;48.296;8.874;2023-02-25T03:57:17;3.10;99.90
13686;DHT22;6915;48.296;8.874;2023-02-25T03:59:46;3.00;99.90
13686;DHT22;6915;48.296;8.874;2023-02-25T04:02:16;3.00;99.90
13686;DHT22;6915;48.296;8.874;2023-02-25T04:04:47;3.00;99.90
13686;DHT22;6915;48.296;8.874;2023-02-25T04:07:15;3.00;99.90
13686;DHT22;6915;48.296;8.874;2023-02-25T04:09:44;3.20;99.90
13686;DHT22;6915;48.296;8.874;2023-02-25T04:12:12;3.00;99.90
13686;DHT22;6915;48.296;8.874;2023-02-25T04:14:42;3.00;99.90
13686;DHT22;6915;48.296;8.874;2023-02-25T04:17:10;3.00;99.90
13686;DHT22;6915;48.296;8.874;2023-02-25T04:19:39;3.00;99.90
13686;DHT22;6915;48.296;8.874;2023-02-25T04:22:09;2.90;99.90
13686;DHT22;6915;48.296;8.874;2023-02-25T04:24:38;3.00;99.90
13686;DHT22;6915;48.296;8.874;2023-02-25T04:27:07;3.00;99.90
13686;DHT22;6915;48.296;8.874;2023-02-25T04:29:35;3.00;99.90
13686;DHT22;6915;48.296;8.874;2023-02-25T04:32:04;2.90;99.90
13686;DHT22;6915;48.296;8.874;2023-02-25T04:34:32;3.10;99.90
13686;DHT22;6915;48.296;8.874;2023-02-25T04:37:02;2.80;99.90
13686;DHT22;6915;48.296;8.874;2023-02-25T04:39:32;2.80;99.90
13686;DHT22;6915;48.296;8.874;2023-02-25T04:42:01;2.90;99.90
13686;DHT22;6915;48.296;8.874;2023-02-25T04:44:29;2.90;99.90
13686;DHT22;6915;48.296;8.874;2023-02-25T04:46:58;2.80;99.90
13686;DHT22;6915;48.296;8.874;2023-02-25T04:49:27;3.10;99.90
13686;DHT22;6915;48.296;8.874;2023-02-25T04:51:55;2.90;99.90
13686;DHT22;6915;48.296;8.874;2023-02-25T04:54:26;2.90;99.90
13686;DHT22;6915;48.296;8.874;2023-02-25T04:56:56;2.90;99.90
13686;DHT22;6915;48.296;8.874;2023-02-25T04:59:24;2.80;99.90
13686;DHT22;6915;48.296;8.874;2023-02-25T05:01:53;2.80;99.90
13686;DHT22;6915;48.296;8.874;2023-02-25T05:04:21;2.80;99.90
13686;DHT22;6915;48.296;8.874;2023-02-25T05:06:50;2.80;99.90
13686;DHT22;6915;48.296;8.874;2023-02-25T05:09:19;2.80;99.90
13686;DHT22;6915;48.296;8.874;2023-02-25T05:11:48;2.70;99.90
13686;DHT22;6915;48.296;8.874;2023-02-25T05:14:18;2.60;99.90
13686;DHT22;6915;48.296;8.874;2023-02-25T05:16:47;2.60;99.90
13686;DHT22;6915;48.296;8.874;2023-02-25T05:19:17;2.50;99.90
13686;DHT22;6915;48.296;8.874;2023-02-25T05:21:49;2.50;99.90
13686;DHT22;6915;48.296;8.874;2023-02-25T05:24:18;2.50;99.90
13686;DHT22;6915;48.296;8.874;2023-02-25T05:26:49;2.50;99.90
13686;DHT22;6915;48.296;8.874;2023-02-25T05:29:20;2.40;99.90
13686;DHT22;6915;48.296;8.874;2023-02-25T05:31:48;2.60;99.90
13686;DHT22;6915;48.296;8.874;2023-02-25T05:34:18;2.40;99.90
13686;DHT22;6915;48.296;8.874;2023-02-25T05:36:49;2.40;99.90
13686;DHT22;6915;48.296;8.874;2023-02-25T05:39:17;2.40;99.90
13686;DHT22;6915;48.296;8.874;2023-02-25T05:41:46;2.60;99.90
13686;DHT22;6915;48.296;8.874;2023-02-25T05:44:15;2.40;99.90
13686;DHT22;6915;48.296;8.874;2023-02-25T05:46:45;2.40;99.90
13686;DHT22;6915;48.296;8.874;2023-02-25T05:49:13;2.50;99.90
13686;DHT22;6915;48.296;8.874;2023-02-25T05:51:42;2.50;99.90
13686;DHT22;6915;48.296;8.874;2023-02-25T05:54:11;2.50;99.90
13686;DHT22;6915;48.296;8.874;2023-02-25T05:56:39;2.40;99.90
13686;DHT22;6915;48.296;8.874;2023-02-25T05:59:08;2.60;99.90
13686;DHT22;6915;48.296;8.874;2023-02-25T06:01:37;2.50;99.90
13686;DHT22;6915;48.296;8.874;2023-02-25T06:04:07;2.40;99.90
13686;DHT22;6915;48.296;8.874;2023-02-25T06:06:36;2.30;99.90
13686;DHT22;6915;48.296;8.874;2023-02-25T06:09:05;2.10;99.90
13686;DHT22;6915;48.296;8.874;2023-02-25T06:11:35;2.20;99.90
13686;DHT22;6915;48.296;8.874;2023-02-25T06:14:04;2.10;99.90
13686;DHT22;6915;48.296;8.874;2023-02-25T06:16:32;2.10;99.90
13686;DHT22;6915;48.296;8.874;2023-02-25T06:19:02;2.10;99.90
13686;DHT22;6915;48.296;8.874;2023-02-25T06:21:32;2.10;99.90
13686;DHT22;6915;48.296;8.874;2023-02-25T06:24:02;2.00;99.90
13686;DHT22;6915;48.296;8.874;2023-02-25T06:26:31;2.00;99.90
13686;DHT22;6915;48.296;8.874;2023-02-25T06:29:01;2.00;99.90
13686;DHT22;6915;48.296;8.874;2023-02-25T06:31:30;2.00;99.90
13686;DHT22;6915;48.296;8.874;2023-02-25T06:34:00;1.90;99.90
13686;DHT22;6915;48.296;8.874;2023-02-25T06:36:29;2.00;99.90
13686;DHT22;6915;48.296;8.874;2023-02-25T06:38:59;2.00;99.90
13686;DHT22;6915;48.296;8.874;2023-02-25T06:41:28;2.00;99.90
13686;DHT22;6915;48.296;8.874;2023-02-25T06:43:58;2.00;99.90
13686;DHT22;6915;48.296;8.874;2023-02-25T06:46:26;2.00;99.90
13686;DHT22;6915;48.296;8.874;2023-02-25T06:48:55;2.00;99.90
13686;DHT22;6915;48.296;8.874;2023-02-25T06:51:31;1.90;99.90
13686;DHT22;6915;48.296;8.874;2023-02-25T07:14:38;2.10;99.90
13686;DHT22;6915;48.296;8.874;2023-02-25T07:17:06;2.00;99.90
13686;DHT22;6915;48.296;8.874;2023-02-25T07:19:35;2.10;99.90
13686;DHT22;6915;48.296;8.874;2023-02-25T07:22:04;2.10;99.90
13686;DHT22;6915;48.296;8.874;2023-02-25T07:24:32;2.10;99.90
13686;DHT22;6915;48.296;8.874;2023-02-25T07:27:07;2.30;99.90
13686;DHT22;6915;48.296;8.874;2023-02-25T07:29:37;2.20;99.90
13686;DHT22;6915;48.296;8.874;2023-02-25T07:32:06;2.40;99.90
13686;DHT22;6915;48.296;8.874;2023-02-25T07:34:35;2.30;99.90
13686;DHT22;6915;48.296;8.874;2023-02-25T07:37:05;2.30;99.90
13686;DHT22;6915;48.296;8.874;2023-02-25T07:39:33;2.40;99.90
13686;DHT22;6915;48.296;8.874;2023-02-25T07:42:02;2.40;99.90
13686;DHT22;6915;48.296;8.874;2023-02-25T07:44:31;2.40;99.90
13686;DHT22;6915;48.296;8.874;2023-02-25T07:47:03;2.40;99.90
13686;DHT22;6915;48.296;8.874;2023-02-25T07:49:32;2.30;99.90
13686;DHT22;6915;48.296;8.874;2023-02-25T07:52:00;2.40;99.90
13686;DHT22;6915;48.296;8.874;2023-02-25T07:54:29;2.40;99.90
13686;DHT22;6915;48.296;8.874;2023-02-25T07:56:58;2.50;99.90
13686;DHT22;6915;48.296;8.874;2023-02-25T07:59:27;2.50;99.90
13686;DHT22;6915;48.296;8.874;2023-02-25T08:01:56;2.50;99.90
13686;DHT22;6915;48.296;8.874;2023-02-25T08:04:27;2.50;99.90
13686;DHT22;6915;48.296;8.874;2023-02-25T08:06:57;2.50;99.90
13686;DHT22;6915;48.296;8.874;2023-02-25T08:09:25;2.50;99.90
13686;DHT22;6915;48.296;8.874;2023-02-25T08:11:54;2.70;99.90
13686;DHT22;6915;48.296;8.874;2023-02-25T08:14:22;2.60;99.90
13686;DHT22;6915;48.296;8.874;2023-02-25T08:16:54;2.60;99.90
13686;DHT22;6915;48.296;8.874;2023-02-25T08:19:22;2.60;99.90
13686;DHT22;6915;48.296;8.874;2023-02-25T08:21:53;2.60;99.90
13686;DHT22;6915;48.296;8.874;2023-02-25T08:24:22;2.70;99.90
13686;DHT22;6915;48.296;8.874;2023-02-25T08:26:50;2.70;99.90
13686;DHT22;6915;48.296;8.874;2023-02-25T08:29:21;2.90;99.90
13686;DHT22;6915;48.296;8.874;2023-02-25T08:31:51;2.70;99.90
13686;DHT22;6915;48.296;8.874;2023-02-25T08:34:19;2.80;99.90
13686;DHT22;6915;48.296;8.874;2023-02-25T08:36:48;2.80;99.90
13686;DHT22;6915;48.296;8.874;2023-02-25T08:39:18;2.90;99.90
13686;DHT22;6915;48.296;8.874;2023-02-25T08:41:47;2.90;99.90
13686;DHT22;6915;48.296;8.874;2023-02-25T08:44:16;3.00;99.90
13686;DHT22;6915;48.296;8.874;2023-02-25T08:46:46;3.00;99.90
13686;DHT22;6915;48.296;8.874;2023-02-25T08:49:15;3.00;99.90
13686;DHT22;6915;48.296;8.874;2023-02-25T08:51:43;3.00;99.90
13686;DHT22;6915;48.296;8.874;2023-02-25T08:54:14;2.90;99.90
13686;DHT22;6915;48.296;8.874;2023-02-25T08:56:44;3.20;99.90
13686;DHT22;6915;48.296;8.874;2023-02-25T08:59:15;3.30;99.90
13686;DHT22;6915;48.296;8.874;2023-02-25T09:01:44;3.30;99.90
13686;DHT22;6915;48.296;8.874;2023-02-25T09:04:16;3.30;99.90
13686;DHT22;6915;48.296;8.874;2023-02-25T09:06:45;3.40;99.90
13686;DHT22;6915;48.296;8.874;2023-02-25T09:09:15;3.40;99.90
13686;DHT22;6915;48.296;8.874;2023-02-25T09:11:46;3.40;99.90
13686;DHT22;6915;48.296;8.874;2023-02-25T09:14:15;3.30;99.90
13686;DHT22;6915;48.296;8.874;2023-02-25T09:16:44;3.40;99.90
13686;DHT22;6915;48.296;8.874;2023-02-25T09:19:13;3.50;99.90
13686;DHT22;6915;48.296;8.874;2023-02-25T09:21:44;3.40;99.90
13686;DHT22;6915;48.296;8.874;2023-02-25T09:24:15;3.50;99.90
13686;DHT22;6915;48.296;8.874;2023-02-25T09:26:44;3.80;99.90
13686;DHT22;6915;48.296;8.874;2023-02-25T09:29:13;3.60;99.90
13686;DHT22;6915;48.296;8.874;2023-02-25T09:31:42;3.60;99.90
13686;DHT22;6915;48.296;8.874;2023-02-25T09:34:11;3.60;99.90
13686;DHT22;6915;48.296;8.874;2023-02-25T09:36:42;3.50;99.90
13686;DHT22;6915;48.296;8.874;2023-02-25T09:39:11;3.80;99.90
13686;DHT22;6915;48.296;8.874;2023-02-25T09:41:49;3.60;99.90
13686;DHT22;6915;48.296;8.874;2023-02-25T09:44:21;3.50;99.90
13686;DHT22;6915;48.296;8.874;2023-02-25T09:46:53;3.60;99.90
13686;DHT22;6915;48.296;8.874;2023-02-25T09:49:30;3.60;99.90
13686;DHT22;6915;48.296;8.874;2023-02-25T09:52:02;3.60;99.90
13686;DHT22;6915;48.296;8.874;2023-02-25T09:54:44;3.50;99.90
13686;DHT22;6915;48.296;8.874;2023-02-25T09:57:18;3.40;99.90
13686;DHT22;6915;48.296;8.874;2023-02-25T09:59:50;3.50;99.90
13686;DHT22;6915;48.296;8.874;2023-02-25T10:02:26;3.30;99.90
13686;DHT22;6915;48.296;8.874;2023-02-25T10:05:10;3.60;99.90
13686;DHT22;6915;48.296;8.874;2023-02-25T10:07:52;3.70;99.90
13686;DHT22;6915;48.296;8.874;2023-02-25T10:10:32;3.90;99.90
13686;DHT22;6915;48.296;8.874;2023-02-25T10:13:07;4.10;99.90
13686;DHT22;6915;48.296;8.874;2023-02-25T10:15:48;4.20;99.90
13686;DHT22;6915;48.296;8.874;2023-02-25T10:18:26;4.10;99.90
13686;DHT22;6915;48.296;8.874;2023-02-25T10:21:10;3.80;99.90
13686;DHT22;6915;48.296;8.874;2023-02-25T10:23:57;3.50;99.90
13686;DHT22;6915;48.296;8.874;2023-02-25T10:26:29;3.40;99.90
13686;DHT22;6915;48.296;8.874;2023-02-25T10:29:03;3.40;99.90
13686;DHT22;6915;48.296;8.874;2023-02-25T10:31:33;3.30;99.90
13686;DHT22;6915;48.296;8.874;2023-02-25T10:34:18;3.40;99.90
13686;DHT22;6915;48.296;8.874;2023-02-25T10:36:51;3.50;99.90
13686;DHT22;6915;48.296;8.874;2023-02-25T10:39:21;3.50;99.90
13686;DHT22;6915;48.296;8.874;2023-02-25T10:41:49;3.40;99.90
13686;DHT22;6915;48.296;8.874;2023-02-25T10:44:19;3.30;99.90
13686;DHT22;6915;48.296;8.874;2023-02-25T10:46:50;3.20;99.90
13686;DHT22;6915;48.296;8.874;2023-02-25T10:49:22;3.30;99.90
13686;DHT22;6915;48.296;8.874;2023-02-25T10:51:57;3.30;99.90
13686;DHT22;6915;48.296;8.874;2023-02-25T10:54:28;3.50;99.90
13686;DHT22;6915;48.296;8.874;2023-02-25T10:56:57;3.50;99.90
13686;DHT22;6915;48.296;8.874;2023-02-25T10:59:30;3.40;99.90
13686;DHT22;6915;48.296;8.874;2023-02-25T11:02:03;3.50;99.90
13686;DHT22;6915;48.296;8.874;2023-02-25T11:04:37;3.70;99.90
13686;DHT22;6915;48.296;8.874;2023-02-25T11:07:27;3.60;99.90
13686;DHT22;6915;48.296;8.874;2023-02-25T11:10:18;3.50;99.90
13686;DHT22;6915;48.296;8.874;2023-02-25T11:12:49;3.80;99.90
13686;DHT22;6915;48.296;8.874;2023-02-25T11:15:27;4.10;99.90
13686;DHT22;6915;48.296;8.874;2023-02-25T11:18:05;4.80;99.90
13686;DHT22;6915;48.296;8.874;2023-02-25T11:20:34;4.60;99.90
13686;DHT22;6915;48.296;8.874;2023-02-25T11:23:03;4.60;99.90
13686;DHT22;6915;48.296;8.874;2023-02-25T11:25:36;4.40;99.90
13686;DHT22;6915;48.296;8.874;2023-02-25T11:28:07;4.40;99.90
13686;DHT22;6915;48.296;8.874;2023-02-25T11:30:45;4.40;99.90
13686;DHT22;6915;48.296;8.874;2023-02-25T11:33:21;4.30;99.90
13686;DHT22;6915;48.296;8.874;2023-02-25T11:35:58;4.30;99.90
13686;DHT22;6915;48.296;8.874;2023-02-25T11:38:31;4.20;99.90
13686;DHT22;6915;48.296;8.874;2023-02-25T11:41:01;4.40;99.90
13686;DHT22;6915;48.296;8.874;2023-02-25T11:43:37;4.40;99.90
13686;DHT22;6915;48.296;8.874;2023-02-25T11:46:10;4.40;99.90
13686;DHT22;6915;48.296;8.874;2023-02-25T11:48:48;4.50;99.90
13686;DHT22;6915;48.296;8.874;2023-02-25T11:51:23;4.30;99.90
13686;DHT22;6915;48.296;8.874;2023-02-25T11:54:07;4.00;99.90
13686;DHT22;6915;48.296;8.874;2023-02-25T11:56:43;3.90;99.90
13686;DHT22;6915;48.296;8.874;2023-02-25T11:59:25;3.80;99.90
13686;DHT22;6915;48.296;8.874;2023-02-25T12:02:18;3.90;99.90
13686;DHT22;6915;48.296;8.874;2023-02-25T12:08:13;3.80;99.90
13686;DHT22;6915;48.296;8.874;2023-02-25T12:11:06;3.40;99.90
13686;DHT22;6915;48.296;8.874;2023-02-25T12:17:22;3.60;99.90
13686;DHT22;6915;48.296;8.874;2023-02-25T12:23:22;3.70;99.90
13686;DHT22;6915;48.296;8.874;2023-02-25T12:25:59;3.70;99.90
13686;DHT22;6915;48.296;8.874;2023-02-25T12:28:45;3.60;99.90
13686;DHT22;6915;48.296;8.874;2023-02-25T12:37:10;3.50;99.90
13686;DHT22;6915;48.296;8.874;2023-02-25T12:39:54;3.50;99.90
13686;DHT22;6915;48.296;8.874;2023-02-25T12:42:33;3.50;99.90
13686;DHT22;6915;48.296;8.874;2023-02-25T12:45:21;3.60;99.90
13686;DHT22;6915;48.296;8.874;2023-02-25T12:48:03;3.60;99.90
13686;DHT22;6915;48.296;8.874;2023-02-25T12:50:52;3.60;99.90
13686;DHT22;6915;48.296;8.874;2023-02-25T12:53:30;3.60;99.90
13686;DHT22;6915;48.296;8.874;2023-02-25T12:56:23;3.80;99.90
13686;DHT22;6915;48.296;8.874;2023-02-25T12:59:14;3.70;99.90
13686;DHT22;6915;48.296;8.874;2023-02-25T13:01:57;3.60;99.90
13686;DHT22;6915;48.296;8.874;2023-02-25T13:07:49;3.70;99.90
13686;DHT22;6915;48.296;8.874;2023-02-25T13:10:47;4.00;99.90
13686;DHT22;6915;48.296;8.874;2023-02-25T13:16:33;4.20;99.90
13686;DHT22;6915;48.296;8.874;2023-02-25T13:19:41;4.20;99.90
13686;DHT22;6915;48.296;8.874;2023-02-25T13:22:28;4.50;99.90
13686;DHT22;6915;48.296;8.874;2023-02-25T13:48:39;4.30;99.90
13686;DHT22;6915;48.296;8.874;2023-02-25T13:51:23;4.40;99.90
13686;DHT22;6915;48.296;8.874;2023-02-25T14:48:31;4.40;99.90
13686;DHT22;6915;48.296;8.874;2023-02-25T14:51:25;4.40;99.90
13686;DHT22;6915;48.296;8.874;2023-02-25T14:57:27;4.50;99.90
13686;DHT22;6915;48.296;8.874;2023-02-25T15:00:24;4.50;99.90
13686;DHT22;6915;48.296;8.874;2023-02-25T15:44:41;3.70;99.90
13686;DHT22;6915;48.296;8.874;2023-02-25T15:47:25;3.70;99.90
13686;DHT22;6915;48.296;8.874;2023-02-25T15:49:57;3.80;99.90
13686;DHT22;6915;48.296;8.874;2023-02-25T16:33:51;3.20;99.90
13686;DHT22;6915;48.296;8.874;2023-02-25T16:36:26;3.20;99.90
13686;DHT22;6915;48.296;8.874;2023-02-25T16:38:59;3.20;99.90
13686;DHT22;6915;48.296;8.874;2023-02-25T16:41:29;3.10;99.90
13686;DHT22;6915;48.296;8.874;2023-02-25T16:43:59;3.20;99.90
13686;DHT22;6915;48.296;8.874;2023-02-25T16:46:30;3.10;99.90
13686;DHT22;6915;48.296;8.874;2023-02-25T16:49:04;3.10;99.90
13686;DHT22;6915;48.296;8.874;2023-02-25T16:51:37;3.10;99.90
13686;DHT22;6915;48.296;8.874;2023-02-25T16:54:10;3.10;99.90
13686;DHT22;6915;48.296;8.874;2023-02-25T16:56:41;3.20;99.90
13686;DHT22;6915;48.296;8.874;2023-02-25T16:59:18;3.20;99.90
13686;DHT22;6915;48.296;8.874;2023-02-25T17:01:53;3.10;99.90
13686;DHT22;6915;48.296;8.874;2023-02-25T17:04:30;3.10;99.90
13686;DHT22;6915;48.296;8.874;2023-02-25T17:07:06;3.00;99.90
13686;DHT22;6915;48.296;8.874;2023-02-25T17:09:36;3.00;99.90
13686;DHT22;6915;48.296;8.874;2023-02-25T17:12:15;3.00;99.90
13686;DHT22;6915;48.296;8.874;2023-02-25T17:14:47;2.90;99.90
13686;DHT22;6915;48.296;8.874;2023-02-25T17:17:20;2.80;99.90
13686;DHT22;6915;48.296;8.874;2023-02-25T17:19:52;3.00;99.90
13686;DHT22;6915;48.296;8.874;2023-02-25T17:22:22;2.80;99.90
13686;DHT22;6915;48.296;8.874;2023-02-25T17:24:55;2.80;99.90
13686;DHT22;6915;48.296;8.874;2023-02-25T17:27:26;2.80;99.90
13686;DHT22;6915;48.296;8.874;2023-02-25T17:29:56;2.90;99.90
13686;DHT22;6915;48.296;8.874;2023-02-25T17:32:27;2.70;99.90
13686;DHT22;6915;48.296;8.874;2023-02-25T17:35:01;2.60;99.90
13686;DHT22;6915;48.296;8.874;2023-02-25T17:37:34;2.60;99.90
13686;DHT22;6915;48.296;8.874;2023-02-25T17:40:08;2.60;99.90
13686;DHT22;6915;48.296;8.874;2023-02-25T17:42:38;2.60;99.90
13686;DHT22;6915;48.296;8.874;2023-02-25T17:45:35;2.50;99.90
13686;DHT22;6915;48.296;8.874;2023-02-25T17:47:57;2.50;99.90
13686;DHT22;6915;48.296;8.874;2023-02-25T17:50:30;2.50;99.90
13686;DHT22;6915;48.296;8.874;2023-02-25T17:53:00;2.50;99.90
13686;DHT22;6915;48.296;8.874;2023-02-25T17:55:33;2.50;99.90
13686;DHT22;6915;48.296;8.874;2023-02-25T17:58:02;2.40;99.90
13686;DHT22;6915;48.296;8.874;2023-02-25T18:00:33;2.40;99.90
13686;DHT22;6915;48.296;8.874;2023-02-25T18:03:15;2.30;99.90
13686;DHT22;6915;48.296;8.874;2023-02-25T18:05:51;2.20;99.90
13686;DHT22;6915;48.296;8.874;2023-02-25T18:08:20;2.10;99.90
13686;DHT22;6915;48.296;8.874;2023-02-25T18:10:53;2.00;99.90
13686;DHT22;6915;48.296;8.874;2023-02-25T18:13:31;2.00;99.90
13686;DHT22;6915;48.296;8.874;2023-02-25T18:19:04;1.90;99.90
13686;DHT22;6915;48.296;8.874;2023-02-25T18:21:41;1.80;99.90
13686;DHT22;6915;48.296;8.874;2023-02-25T21:32:45;-0.40;99.90
13686;DHT22;6915;48.296;8.874;2023-02-25T21:35:14;-0.40;99.90
13686;DHT22;6915;48.296;8.874;2023-02-25T21:37:44;-0.40;99.90
13686;DHT22;6915;48.296;8.874;2023-02-25T21:40:16;-0.40;99.90
13686;DHT22;6915;48.296;8.874;2023-02-25T21:42:47;-0.20;99.90
13686;DHT22;6915;48.296;8.874;2023-02-25T21:45:18;-0.30;99.90
13686;DHT22;6915;48.296;8.874;2023-02-25T21:47:48;-0.30;99.90
13686;DHT22;6915;48.296;8.874;2023-02-25T21:50:17;-0.30;99.90
13686;DHT22;6915;48.296;8.874;2023-02-25T21:52:46;-0.30;99.90
13686;DHT22;6915;48.296;8.874;2023-02-25T21:55:15;-0.30;99.90
13686;DHT22;6915;48.296;8.874;2023-02-25T21:57:43;-0.40;99.90
13686;DHT22;6915;48.296;8.874;2023-02-25T22:00:13;-0.40;99.90
13686;DHT22;6915;48.296;8.874;2023-02-25T22:02:42;-0.50;99.90
13686;DHT22;6915;48.296;8.874;2023-02-25T22:05:12;-0.50;99.90
13686;DHT22;6915;48.296;8.874;2023-02-25T22:07:42;-0.40;99.90
13686;DHT22;6915;48.296;8.874;2023-02-25T22:10:10;-0.60;99.90
13686;DHT22;6915;48.296;8.874;2023-02-25T22:12:39;-0.60;99.90
13686;DHT22;6915;48.296;8.874;2023-02-25T22:15:09;-0.60;99.90
13686;DHT22;6915;48.296;8.874;2023-02-25T22:17:38;-0.70;99.90
13686;DHT22;6915;48.296;8.874;2023-02-25T22:20:08;-0.70;99.90
13686;DHT22;6915;48.296;8.874;2023-02-25T22:22:39;-0.80;99.90
13686;DHT22;6915;48.296;8.874;2023-02-25T22:25:08;-0.90;99.90
13686;DHT22;6915;48.296;8.874;2023-02-25T22:27:37;-0.80;99.90
13686;DHT22;6915;48.296;8.874;2023-02-25T22:30:07;-0.80;99.90
13686;DHT22;6915;48.296;8.874;2023-02-25T22:32:36;-0.90;99.90
13686;DHT22;6915;48.296;8.874;2023-02-25T22:35:06;-0.90;99.90
13686;DHT22;6915;48.296;8.874;2023-02-25T22:37:35;-1.00;99.90
13686;DHT22;6915;48.296;8.874;2023-02-25T22:40:06;-1.10;99.90
13686;DHT22;6915;48.296;8.874;2023-02-25T22:42:36;-1.10;99.90
13686;DHT22;6915;48.296;8.874;2023-02-25T22:45:06;-1.20;99.90
13686;DHT22;6915;48.296;8.874;2023-02-25T22:47:35;-1.20;99.90
13686;DHT22;6915;48.296;8.874;2023-02-25T22:50:04;-1.30;99.90
13686;DHT22;6915;48.296;8.874;2023-02-25T22:52:32;-1.40;99.90
13686;DHT22;6915;48.296;8.874;2023-02-25T22:55:01;-1.40;99.90
13686;DHT22;6915;48.296;8.874;2023-02-25T22:57:32;-1.30;99.90
13686;DHT22;6915;48.296;8.874;2023-02-25T23:00:00;-1.30;99.90
13686;DHT22;6915;48.296;8.874;2023-02-25T23:02:30;-1.30;99.90
13686;DHT22;6915;48.296;8.874;2023-02-25T23:04:58;-1.30;99.90
13686;DHT22;6915;48.296;8.874;2023-02-25T23:07:27;-1.40;99.90
13686;DHT22;6915;48.296;8.874;2023-02-25T23:09:56;-1.40;99.90
13686;DHT22;6915;48.296;8.874;2023-02-25T23:12:25;-1.40;99.90